createdAt,value
2017-12-11T00:00:11.472Z,10.22
2017-12-11T00:00:51.987Z,10.18
2017-12-11T00:01:32.524Z,10.15
2017-12-11T00:02:13.040Z,10.18
2017-12-11T00:02:53.643Z,10.2
2017-12-11T00:03:34.177Z,10.18
2017-12-11T00:04:14.748Z,10.18
2017-12-11T00:04:55.302Z,10.2
2017-12-11T00:05:35.807Z,10.04
2017-12-11T00:06:16.344Z,10.23
2017-12-11T00:06:56.865Z,10.14
2017-12-11T00:07:37.364Z,10.07
2017-12-11T00:08:17.912Z,10.09
2017-12-11T00:08:58.474Z,10.18
2017-12-11T00:09:39.019Z,10.12
2017-12-11T00:10:19.589Z,10.07
2017-12-11T00:11:00.104Z,10.09
2017-12-11T00:11:40.685Z,10.14
2017-12-11T00:12:21.182Z,10.12
2017-12-11T00:13:01.719Z,10.05
2017-12-11T00:13:42.306Z,10.17
2017-12-11T00:14:22.843Z,10.2
2017-12-11T00:15:03.362Z,10.17
2017-12-11T00:15:43.906Z,10.15
2017-12-11T00:16:24.460Z,10.08
2017-12-11T00:17:05.032Z,10.04
2017-12-11T00:17:45.524Z,10.17
2017-12-11T00:18:26.045Z,10.17
2017-12-11T00:19:06.592Z,10.2
2017-12-11T00:19:47.174Z,10.18
2017-12-11T00:20:27.659Z,10.18
2017-12-11T00:21:08.222Z,10.22
2017-12-11T00:21:48.812Z,10.2
2017-12-11T00:22:29.338Z,10.22
2017-12-11T00:23:09.894Z,10.14
2017-12-11T00:23:50.399Z,10.15
2017-12-11T00:24:30.997Z,10.2
2017-12-11T00:25:11.522Z,10.22
2017-12-11T00:25:52.043Z,10.18
2017-12-11T00:26:32.576Z,10.17
2017-12-11T00:27:13.071Z,10.14
2017-12-11T00:27:53.612Z,10.27
2017-12-11T00:28:34.148Z,10.14
2017-12-11T00:29:14.714Z,10.2
2017-12-11T00:29:55.240Z,10.17
2017-12-11T00:30:35.820Z,10.17
2017-12-11T00:31:16.575Z,10.23
2017-12-11T00:31:57.012Z,10.22
2017-12-11T00:32:37.513Z,10.2
2017-12-11T00:33:18.048Z,10.29
2017-12-11T00:33:58.598Z,10.33
2017-12-11T00:34:39.150Z,10.3
2017-12-11T00:35:19.680Z,10.3
2017-12-11T00:36:00.184Z,10.29
2017-12-11T00:36:40.712Z,10.26
2017-12-11T00:37:21.284Z,10.3
2017-12-11T00:38:01.795Z,10.41
2017-12-11T00:38:42.383Z,10.3
2017-12-11T00:39:22.871Z,10.36
2017-12-11T00:40:03.412Z,10.4
2017-12-11T00:40:43.996Z,10.34
2017-12-11T00:41:24.525Z,10.38
2017-12-11T00:42:05.066Z,10.41
2017-12-11T00:42:45.607Z,10.36
2017-12-11T00:43:26.168Z,10.32
2017-12-11T00:44:06.739Z,10.34
2017-12-11T00:44:47.271Z,10.4
2017-12-11T00:45:27.821Z,10.42
2017-12-11T00:46:08.369Z,10.55
2017-12-11T00:46:48.924Z,10.42
2017-12-11T00:47:29.454Z,10.45
2017-12-11T00:48:09.974Z,10.38
2017-12-11T00:48:50.521Z,10.41
2017-12-11T00:49:31.059Z,10.4
2017-12-11T00:50:11.585Z,10.51
2017-12-11T00:50:52.123Z,10.51
2017-12-11T00:51:32.623Z,10.47
2017-12-11T00:52:13.185Z,10.51
2017-12-11T00:52:53.747Z,10.55
2017-12-11T00:53:34.278Z,10.45
2017-12-11T00:54:14.869Z,10.45
2017-12-11T00:54:55.423Z,10.59
2017-12-11T00:55:35.968Z,10.52
2017-12-11T00:56:16.474Z,10.55
2017-12-11T00:56:57.081Z,10.52
2017-12-11T00:57:37.625Z,10.61
2017-12-11T00:58:18.164Z,10.52
2017-12-11T00:58:58.666Z,10.59
2017-12-11T00:59:39.188Z,10.51
2017-12-11T01:00:19.726Z,10.56
2017-12-11T01:01:00.231Z,10.63
2017-12-11T01:01:40.797Z,10.66
2017-12-11T01:02:21.324Z,10.53
2017-12-11T01:03:01.877Z,10.63
2017-12-11T01:03:42.421Z,10.63
2017-12-11T01:04:22.946Z,10.66
2017-12-11T01:05:03.526Z,10.66
2017-12-11T01:05:44.108Z,10.59
2017-12-11T01:06:24.651Z,10.48
2017-12-11T01:07:05.168Z,10.61
2017-12-11T01:07:45.796Z,10.63
2017-12-11T01:08:26.346Z,10.66
2017-12-11T01:09:06.843Z,10.6
2017-12-11T01:09:47.365Z,10.63
2017-12-11T01:10:27.926Z,10.56
2017-12-11T01:11:08.435Z,10.6
2017-12-11T01:11:48.991Z,10.61
2017-12-11T01:12:29.546Z,10.63
2017-12-11T01:13:10.088Z,10.63
2017-12-11T01:13:50.655Z,10.6
2017-12-11T01:14:31.204Z,10.51
2017-12-11T01:15:11.743Z,10.66
2017-12-11T01:15:52.310Z,10.63
2017-12-11T01:16:32.860Z,10.52
2017-12-11T01:17:13.417Z,10.52
2017-12-11T01:17:53.932Z,10.52
2017-12-11T01:18:34.454Z,10.52
2017-12-11T01:19:14.998Z,10.61
2017-12-11T01:19:55.542Z,10.56
2017-12-11T01:20:36.107Z,10.53
2017-12-11T01:21:16.658Z,10.51
2017-12-11T01:21:57.192Z,10.53
2017-12-11T01:22:37.749Z,10.56
2017-12-11T01:23:18.340Z,10.52
2017-12-11T01:23:58.847Z,10.44
2017-12-11T01:24:39.391Z,10.51
2017-12-11T01:25:19.910Z,10.53
2017-12-11T01:26:00.456Z,10.42
2017-12-11T01:26:40.982Z,10.42
2017-12-11T01:27:21.506Z,10.4
2017-12-11T01:28:02.097Z,10.36
2017-12-11T01:28:42.636Z,10.36
2017-12-11T01:29:23.168Z,10.33
2017-12-11T01:30:03.703Z,10.38
2017-12-11T01:30:44.226Z,10.33
2017-12-11T01:31:24.756Z,10.34
2017-12-11T01:32:05.310Z,10.36
2017-12-11T01:32:45.845Z,10.34
2017-12-11T01:33:26.390Z,10.34
2017-12-11T01:34:06.917Z,10.4
2017-12-11T01:34:47.448Z,10.44
2017-12-11T01:35:27.958Z,10.42
2017-12-11T01:36:08.554Z,10.45
2017-12-11T01:36:49.107Z,10.42
2017-12-11T01:37:29.636Z,10.55
2017-12-11T01:38:10.167Z,10.56
2017-12-11T01:38:50.710Z,10.48
2017-12-11T01:39:31.267Z,10.52
2017-12-11T01:40:11.838Z,10.52
2017-12-11T01:40:52.378Z,10.51
2017-12-11T01:41:32.884Z,10.59
2017-12-11T01:42:13.438Z,10.61
2017-12-11T01:42:54.008Z,10.55
2017-12-11T01:43:34.572Z,10.53
2017-12-11T01:44:15.087Z,10.44
2017-12-11T01:44:55.580Z,10.56
2017-12-11T01:45:36.118Z,10.55
2017-12-11T01:46:16.667Z,10.53
2017-12-11T01:46:57.167Z,10.56
2017-12-11T01:47:37.770Z,10.51
2017-12-11T01:48:18.288Z,10.63
2017-12-11T01:48:58.845Z,10.74
2017-12-11T01:49:39.412Z,10.71
2017-12-11T01:50:19.916Z,10.59
2017-12-11T01:51:00.467Z,10.59
2017-12-11T01:51:41.004Z,10.64
2017-12-11T01:52:21.584Z,10.63
2017-12-11T01:53:02.118Z,10.67
2017-12-11T01:53:42.648Z,10.73
2017-12-11T01:54:23.226Z,10.68
2017-12-11T01:55:03.762Z,10.74
2017-12-11T01:55:44.306Z,10.71
2017-12-11T01:56:24.853Z,10.71
2017-12-11T01:57:05.398Z,10.76
2017-12-11T01:57:45.935Z,10.7
2017-12-11T01:58:26.461Z,10.7
2017-12-11T01:59:06.992Z,10.71
2017-12-11T01:59:47.524Z,10.67
2017-12-11T02:00:28.097Z,10.76
2017-12-11T02:01:08.633Z,10.79
2017-12-11T02:01:49.186Z,10.78
2017-12-11T02:02:29.713Z,10.79
2017-12-11T02:03:10.272Z,10.81
2017-12-11T02:03:50.805Z,10.82
2017-12-11T02:04:31.339Z,10.86
2017-12-11T02:05:11.878Z,10.86
2017-12-11T02:05:52.403Z,10.85
2017-12-11T02:06:32.939Z,10.89
2017-12-11T02:07:13.487Z,10.88
2017-12-11T02:07:54.030Z,10.94
2017-12-11T02:08:34.556Z,10.81
2017-12-11T02:09:15.112Z,10.92
2017-12-11T02:09:55.667Z,10.99
2017-12-11T02:10:36.197Z,10.97
2017-12-11T02:11:16.734Z,10.88
2017-12-11T02:11:57.290Z,10.97
2017-12-11T02:12:37.823Z,10.97
2017-12-11T02:13:18.385Z,10.94
2017-12-11T02:13:58.942Z,10.92
2017-12-11T02:14:39.468Z,10.96
2017-12-11T02:15:20.069Z,11.02
2017-12-11T02:16:00.635Z,10.96
2017-12-11T02:16:41.164Z,10.94
2017-12-11T02:17:21.708Z,10.99
2017-12-11T02:18:02.256Z,10.96
2017-12-11T02:18:42.773Z,10.96
2017-12-11T02:19:23.299Z,10.99
2017-12-11T02:20:03.851Z,11
2017-12-11T02:20:44.332Z,11.03
2017-12-11T02:21:24.864Z,10.99
2017-12-11T02:22:05.445Z,11.07
2017-12-11T02:22:45.941Z,11.02
2017-12-11T02:23:26.491Z,10.99
2017-12-11T02:24:07.038Z,11.02
2017-12-11T02:24:47.590Z,10.99
2017-12-11T02:25:28.129Z,11.04
2017-12-11T02:26:08.625Z,11.09
2017-12-11T02:26:49.143Z,10.96
2017-12-11T02:27:29.676Z,11.1
2017-12-11T02:28:10.190Z,11.04
2017-12-11T02:28:50.727Z,11.07
2017-12-11T02:29:31.280Z,11.04
2017-12-11T02:30:11.824Z,11.06
2017-12-11T02:30:52.381Z,11.06
2017-12-11T02:31:32.914Z,11.06
2017-12-11T02:32:13.509Z,11.06
2017-12-11T02:32:54.069Z,11.09
2017-12-11T02:33:34.587Z,11.06
2017-12-11T02:34:15.096Z,11.02
2017-12-11T02:34:55.641Z,11.11
2017-12-11T02:35:36.231Z,11.06
2017-12-11T02:36:16.768Z,11.1
2017-12-11T02:36:57.290Z,11.11
2017-12-11T02:37:37.804Z,11.1
2017-12-11T02:38:18.354Z,11.09
2017-12-11T02:38:58.888Z,11.07
2017-12-11T02:39:39.438Z,11.1
2017-12-11T02:40:19.974Z,11.11
2017-12-11T02:41:00.519Z,11.22
2017-12-11T02:41:41.057Z,11.09
2017-12-11T02:42:21.588Z,11.1
2017-12-11T02:43:02.169Z,11.1
2017-12-11T02:43:42.672Z,11.14
2017-12-11T02:44:23.246Z,11.1
2017-12-11T02:45:03.792Z,11.18
2017-12-11T02:45:44.343Z,11.14
2017-12-11T02:46:24.874Z,11.11
2017-12-11T02:47:05.403Z,11.1
2017-12-11T02:47:45.969Z,11.09
2017-12-11T02:48:26.470Z,11.18
2017-12-11T02:49:07.048Z,11.14
2017-12-11T02:49:47.621Z,11.18
2017-12-11T02:50:28.160Z,11.15
2017-12-11T02:51:08.713Z,11.18
2017-12-11T02:51:49.261Z,11.24
2017-12-11T02:52:29.807Z,11.19
2017-12-11T02:53:10.311Z,11.22
2017-12-11T02:53:50.873Z,11.24
2017-12-11T02:54:31.416Z,11.18
2017-12-11T02:55:11.973Z,11.19
2017-12-11T02:55:52.706Z,11.17
2017-12-11T02:56:33.194Z,11.15
2017-12-11T02:57:13.706Z,11.21
2017-12-11T02:57:54.282Z,11.21
2017-12-11T02:58:34.812Z,11.18
2017-12-11T02:59:15.375Z,11.19
2017-12-11T02:59:55.915Z,11.21
2017-12-11T03:00:36.461Z,11.24
2017-12-11T03:01:17.018Z,11.19
2017-12-11T03:01:57.546Z,11.17
2017-12-11T03:02:38.142Z,11.19
2017-12-11T03:03:18.671Z,11.24
2017-12-11T03:03:59.226Z,11.18
2017-12-11T03:04:39.825Z,11.18
2017-12-11T03:05:20.328Z,11.18
2017-12-11T03:06:00.836Z,11.18
2017-12-11T03:06:41.443Z,11.22
2017-12-11T03:07:21.926Z,11.21
2017-12-11T03:08:02.435Z,11.19
2017-12-11T03:08:43.007Z,11.21
2017-12-11T03:09:23.580Z,11.15
2017-12-11T03:10:04.082Z,11.21
2017-12-11T03:10:44.592Z,11.17
2017-12-11T03:11:25.112Z,11.18
2017-12-11T03:12:05.642Z,11.15
2017-12-11T03:12:46.182Z,11.22
2017-12-11T03:13:26.743Z,11.17
2017-12-11T03:14:07.230Z,11.21
2017-12-11T03:14:47.720Z,11.19
2017-12-11T03:15:28.276Z,11.24
2017-12-11T03:16:08.818Z,11.18
2017-12-11T03:16:49.370Z,11.21
2017-12-11T03:17:29.921Z,11.25
2017-12-11T03:18:10.457Z,11.32
2017-12-11T03:18:50.991Z,11.27
2017-12-11T03:19:31.600Z,11.17
2017-12-11T03:20:12.079Z,11.28
2017-12-11T03:20:52.658Z,11.17
2017-12-11T03:21:33.139Z,11.22
2017-12-11T03:22:13.669Z,11.18
2017-12-11T03:22:54.196Z,11.22
2017-12-11T03:23:34.793Z,11.18
2017-12-11T03:24:15.304Z,11.17
2017-12-11T03:24:55.848Z,11.29
2017-12-11T03:25:36.346Z,11.27
2017-12-11T03:26:16.873Z,11.22
2017-12-11T03:26:57.410Z,11.25
2017-12-11T03:27:37.949Z,11.15
2017-12-11T03:28:18.532Z,11.22
2017-12-11T03:28:59.086Z,11.18
2017-12-11T03:29:39.616Z,11.17
2017-12-11T03:30:20.170Z,11.21
2017-12-11T03:31:00.695Z,11.19
2017-12-11T03:31:41.203Z,11.15
2017-12-11T03:32:21.764Z,11.19
2017-12-11T03:33:02.262Z,11.21
2017-12-11T03:33:42.800Z,11.22
2017-12-11T03:34:23.332Z,11.15
2017-12-11T03:35:03.858Z,11.24
2017-12-11T03:35:44.428Z,11.25
2017-12-11T03:36:24.984Z,11.24
2017-12-11T03:37:05.538Z,11.21
2017-12-11T03:37:46.036Z,11.19
2017-12-11T03:38:26.559Z,11.18
2017-12-11T03:39:07.106Z,11.03
2017-12-11T03:39:47.639Z,11.09
2017-12-11T03:40:28.172Z,11.1
2017-12-11T03:41:08.702Z,11.21
2017-12-11T03:41:49.297Z,11.18
2017-12-11T03:42:29.784Z,11.09
2017-12-11T03:43:10.358Z,11.06
2017-12-11T03:43:50.906Z,11.1
2017-12-11T03:44:31.399Z,11.11
2017-12-11T03:45:11.963Z,11.1
2017-12-11T03:45:52.509Z,11.03
2017-12-11T03:46:33.014Z,11.07
2017-12-11T03:47:13.535Z,11.1
2017-12-11T03:47:54.112Z,11.09
2017-12-11T03:48:34.670Z,11.09
2017-12-11T03:49:15.166Z,11.06
2017-12-11T03:49:55.680Z,11.09
2017-12-11T03:50:36.193Z,11.21
2017-12-11T03:51:16.712Z,11.19
2017-12-11T03:51:57.242Z,11.22
2017-12-11T03:52:37.803Z,11.07
2017-12-11T03:53:18.326Z,11.1
2017-12-11T03:53:58.824Z,10.96
2017-12-11T03:54:39.403Z,11.09
2017-12-11T03:55:19.951Z,11.04
2017-12-11T03:56:00.498Z,11.04
2017-12-11T03:56:40.992Z,11.19
2017-12-11T03:57:21.505Z,11.19
2017-12-11T03:58:02.059Z,11.19
2017-12-11T03:58:42.614Z,11.21
2017-12-11T03:59:23.151Z,11.22
2017-12-11T04:00:03.674Z,11.15
2017-12-11T04:00:44.189Z,11.18
2017-12-11T04:01:24.751Z,11.22
2017-12-11T04:02:05.301Z,11.19
2017-12-11T04:02:45.833Z,11.09
2017-12-11T04:03:26.402Z,11.1
2017-12-11T04:04:06.956Z,11.07
2017-12-11T04:04:47.480Z,11.11
2017-12-11T04:05:28.050Z,11.1
2017-12-11T04:06:08.556Z,11.06
2017-12-11T04:06:49.085Z,11.06
2017-12-11T04:07:29.605Z,11.04
2017-12-11T04:08:10.166Z,11.09
2017-12-11T04:08:50.753Z,10.97
2017-12-11T04:09:31.286Z,11.07
2017-12-11T04:10:11.852Z,11.03
2017-12-11T04:10:52.356Z,11.07
2017-12-11T04:11:32.892Z,11.1
2017-12-11T04:12:13.446Z,11.14
2017-12-11T04:12:53.992Z,11.04
2017-12-11T04:13:34.552Z,11.04
2017-12-11T04:14:15.058Z,10.99
2017-12-11T04:14:55.558Z,11
2017-12-11T04:15:36.054Z,11.06
2017-12-11T04:16:16.593Z,10.99
2017-12-11T04:16:57.157Z,11.03
2017-12-11T04:17:37.667Z,11.04
2017-12-11T04:18:18.179Z,10.96
2017-12-11T04:18:58.755Z,10.97
2017-12-11T04:19:39.277Z,10.99
2017-12-11T04:20:19.851Z,10.96
2017-12-11T04:21:00.353Z,10.96
2017-12-11T04:21:40.917Z,10.92
2017-12-11T04:22:21.467Z,10.96
2017-12-11T04:23:02.019Z,11
2017-12-11T04:23:42.525Z,10.97
2017-12-11T04:24:23.103Z,11
2017-12-11T04:25:03.651Z,11.02
2017-12-11T04:25:44.141Z,10.96
2017-12-11T04:26:24.743Z,10.96
2017-12-11T04:27:05.224Z,10.96
2017-12-11T04:27:45.763Z,10.96
2017-12-11T04:28:26.284Z,10.96
2017-12-11T04:29:06.862Z,10.99
2017-12-11T04:29:47.378Z,10.99
2017-12-11T04:30:27.934Z,11.03
2017-12-11T04:31:08.443Z,10.99
2017-12-11T04:31:48.987Z,11
2017-12-11T04:32:29.509Z,10.99
2017-12-11T04:33:10.043Z,11
2017-12-11T04:33:50.604Z,10.96
2017-12-11T04:34:31.127Z,10.96
2017-12-11T04:35:11.732Z,10.97
2017-12-11T04:35:52.209Z,11.03
2017-12-11T04:36:32.747Z,10.96
2017-12-11T04:37:13.260Z,10.92
2017-12-11T04:37:53.797Z,10.96
2017-12-11T04:38:34.345Z,10.92
2017-12-11T04:39:14.920Z,11
2017-12-11T04:39:55.451Z,10.97
2017-12-11T04:40:36.032Z,10.96
2017-12-11T04:41:16.523Z,10.96
2017-12-11T04:41:57.066Z,10.92
2017-12-11T04:42:37.711Z,10.94
2017-12-11T04:43:18.178Z,10.92
2017-12-11T04:43:58.709Z,10.99
2017-12-11T04:44:39.268Z,10.99
2017-12-11T04:45:19.768Z,10.88
2017-12-11T04:46:00.311Z,10.92
2017-12-11T04:46:40.870Z,10.85
2017-12-11T04:47:21.377Z,10.89
2017-12-11T04:48:01.913Z,10.94
2017-12-11T04:48:42.454Z,10.89
2017-12-11T04:49:22.980Z,10.94
2017-12-11T04:50:03.545Z,10.94
2017-12-11T04:50:44.108Z,10.86
2017-12-11T04:51:24.617Z,10.82
2017-12-11T04:52:05.170Z,10.78
2017-12-11T04:52:45.678Z,10.94
2017-12-11T04:53:26.221Z,10.97
2017-12-11T04:54:06.760Z,10.92
2017-12-11T04:54:47.295Z,10.97
2017-12-11T04:55:27.823Z,10.96
2017-12-11T04:56:08.363Z,10.88
2017-12-11T04:56:48.883Z,10.94
2017-12-11T04:57:29.411Z,10.92
2017-12-11T04:58:09.921Z,10.91
2017-12-11T04:58:50.470Z,10.88
2017-12-11T04:59:31.019Z,10.96
2017-12-11T05:00:11.551Z,10.91
2017-12-11T05:00:52.091Z,10.97
2017-12-11T05:01:32.635Z,10.99
2017-12-11T05:02:13.161Z,10.97
2017-12-11T05:02:53.720Z,10.91
2017-12-11T05:03:34.267Z,10.91
2017-12-11T05:04:14.796Z,10.99
2017-12-11T05:04:55.323Z,10.91
2017-12-11T05:05:35.884Z,10.89
2017-12-11T05:06:16.431Z,10.92
2017-12-11T05:06:56.960Z,10.91
2017-12-11T05:07:37.515Z,10.85
2017-12-11T05:08:18.042Z,10.86
2017-12-11T05:08:58.619Z,10.92
2017-12-11T05:09:39.155Z,10.94
2017-12-11T05:10:19.687Z,10.84
2017-12-11T05:11:00.249Z,10.85
2017-12-11T05:11:40.813Z,10.82
2017-12-11T05:12:21.359Z,10.82
2017-12-11T05:13:01.871Z,10.82
2017-12-11T05:13:42.394Z,10.92
2017-12-11T05:14:22.914Z,10.89
2017-12-11T05:15:03.564Z,10.78
2017-12-11T05:15:44.155Z,10.79
2017-12-11T05:16:24.681Z,10.79
2017-12-11T05:17:05.229Z,10.84
2017-12-11T05:17:45.777Z,10.82
2017-12-11T05:18:26.346Z,10.86
2017-12-11T05:19:06.831Z,10.84
2017-12-11T05:19:47.365Z,10.79
2017-12-11T05:20:27.931Z,10.81
2017-12-11T05:21:08.442Z,10.82
2017-12-11T05:21:48.992Z,10.81
2017-12-11T05:22:29.510Z,10.81
2017-12-11T05:23:10.129Z,10.84
2017-12-11T05:23:50.681Z,10.82
2017-12-11T05:24:31.235Z,10.71
2017-12-11T05:25:11.774Z,10.78
2017-12-11T05:25:52.286Z,10.71
2017-12-11T05:26:32.875Z,10.71
2017-12-11T05:27:13.392Z,10.63
2017-12-11T05:27:53.907Z,10.64
2017-12-11T05:28:34.424Z,10.61
2017-12-11T05:29:14.986Z,10.68
2017-12-11T05:29:55.490Z,10.71
2017-12-11T05:30:36.014Z,10.76
2017-12-11T05:31:16.535Z,10.79
2017-12-11T05:31:57.139Z,10.56
2017-12-11T05:32:37.588Z,10.71
2017-12-11T05:33:18.141Z,10.64
2017-12-11T05:33:58.687Z,10.64
2017-12-11T05:34:39.275Z,10.71
2017-12-11T05:35:19.849Z,10.68
2017-12-11T05:36:00.390Z,10.73
2017-12-11T05:36:40.893Z,10.73
2017-12-11T05:37:21.400Z,10.74
2017-12-11T05:38:02.016Z,10.74
2017-12-11T05:38:42.524Z,10.7
2017-12-11T05:39:23.021Z,10.7
2017-12-11T05:40:03.550Z,10.81
2017-12-11T05:40:44.092Z,10.76
2017-12-11T05:41:24.657Z,10.78
2017-12-11T05:42:05.239Z,10.74
2017-12-11T05:42:45.737Z,10.79
2017-12-11T05:43:26.269Z,10.68
2017-12-11T05:44:06.828Z,10.76
2017-12-11T05:44:47.359Z,10.76
2017-12-11T05:45:27.884Z,10.73
2017-12-11T05:46:08.423Z,10.76
2017-12-11T05:46:48.979Z,10.53
2017-12-11T05:47:29.522Z,10.6
2017-12-11T05:48:10.063Z,10.68
2017-12-11T05:48:50.591Z,10.67
2017-12-11T05:49:31.170Z,10.61
2017-12-11T05:50:11.637Z,10.52
2017-12-11T05:50:52.143Z,10.53
2017-12-11T05:51:32.712Z,10.61
2017-12-11T05:52:13.210Z,10.48
2017-12-11T05:52:53.771Z,10.61
2017-12-11T05:53:34.307Z,10.63
2017-12-11T05:54:14.855Z,10.59
2017-12-11T05:54:55.366Z,10.59
2017-12-11T05:55:35.877Z,10.66
2017-12-11T05:56:16.409Z,10.6
2017-12-11T05:56:56.980Z,10.61
2017-12-11T05:57:37.512Z,10.52
2017-12-11T05:58:18.022Z,10.59
2017-12-11T05:58:58.561Z,10.64
2017-12-11T05:59:39.101Z,10.61
2017-12-11T06:00:19.628Z,10.71
2017-12-11T06:01:00.145Z,10.71
2017-12-11T06:01:40.704Z,10.64
2017-12-11T06:02:21.245Z,10.66
2017-12-11T06:03:01.792Z,10.7
2017-12-11T06:03:42.321Z,10.71
2017-12-11T06:04:22.862Z,10.61
2017-12-11T06:05:03.404Z,10.64
2017-12-11T06:05:43.904Z,10.63
2017-12-11T06:06:24.441Z,10.6
2017-12-11T06:07:04.949Z,10.74
2017-12-11T06:07:45.509Z,10.61
2017-12-11T06:08:26.057Z,10.63
2017-12-11T06:09:06.626Z,10.6
2017-12-11T06:09:47.121Z,10.6
2017-12-11T06:10:27.657Z,10.6
2017-12-11T06:11:08.183Z,10.67
2017-12-11T06:11:48.807Z,10.74
2017-12-11T06:12:29.302Z,10.59
2017-12-11T06:13:09.810Z,10.67
2017-12-11T06:13:50.324Z,10.76
2017-12-11T06:14:30.919Z,10.74
2017-12-11T06:15:11.414Z,10.7
2017-12-11T06:15:51.934Z,10.82
2017-12-11T06:16:32.490Z,10.82
2017-12-11T06:17:13.004Z,10.7
2017-12-11T06:17:53.555Z,10.68
2017-12-11T06:18:34.073Z,10.74
2017-12-11T06:19:14.675Z,10.78
2017-12-11T06:19:55.160Z,10.84
2017-12-11T06:20:35.783Z,10.76
2017-12-11T06:21:16.268Z,10.85
2017-12-11T06:21:56.803Z,10.76
2017-12-11T06:22:37.335Z,10.67
2017-12-11T06:23:17.871Z,10.79
2017-12-11T06:23:58.447Z,10.81
2017-12-11T06:24:38.984Z,10.76
2017-12-11T06:25:19.503Z,10.71
2017-12-11T06:26:00.085Z,10.63
2017-12-11T06:26:40.625Z,10.7
2017-12-11T06:27:21.209Z,10.71
2017-12-11T06:28:01.722Z,10.82
2017-12-11T06:28:42.540Z,10.76
2017-12-11T06:29:23.129Z,10.67
2017-12-11T06:30:03.729Z,10.66
2017-12-11T06:30:44.244Z,10.68
2017-12-11T06:31:24.762Z,10.66
2017-12-11T06:32:05.364Z,10.6
2017-12-11T06:32:45.978Z,10.74
2017-12-11T06:33:26.529Z,10.78
2017-12-11T06:34:07.166Z,10.76
2017-12-11T06:34:47.629Z,10.84
2017-12-11T06:35:28.303Z,10.88
2017-12-11T06:36:08.814Z,10.82
2017-12-11T06:36:49.356Z,10.71
2017-12-11T06:37:30.014Z,10.63
2017-12-11T06:38:10.589Z,10.74
2017-12-11T06:38:51.051Z,10.71
2017-12-11T06:39:31.689Z,10.76
2017-12-11T06:40:12.265Z,10.61
2017-12-11T06:40:52.832Z,10.71
2017-12-11T06:41:33.392Z,10.7
2017-12-11T06:42:13.915Z,10.84
2017-12-11T06:42:54.440Z,10.82
2017-12-11T06:43:34.980Z,10.82
2017-12-11T06:44:15.532Z,10.78
2017-12-11T06:44:56.142Z,10.84
2017-12-11T06:45:36.626Z,10.82
2017-12-11T06:46:17.101Z,10.81
2017-12-11T06:46:57.715Z,10.81
2017-12-11T06:47:38.186Z,10.81
2017-12-11T06:48:18.832Z,10.82
2017-12-11T06:48:59.274Z,10.82
2017-12-11T06:49:39.798Z,10.79
2017-12-11T06:50:20.395Z,10.89
2017-12-11T06:51:00.957Z,10.85
2017-12-11T06:51:41.453Z,10.88
2017-12-11T06:52:22.008Z,10.82
2017-12-11T06:53:02.492Z,10.88
2017-12-11T06:53:43.044Z,10.88
2017-12-11T06:54:23.635Z,10.85
2017-12-11T06:55:04.139Z,10.84
2017-12-11T06:55:44.719Z,10.92
2017-12-11T06:56:25.428Z,10.86
2017-12-11T06:57:05.821Z,10.86
2017-12-11T06:57:46.334Z,10.79
2017-12-11T06:58:26.886Z,10.86
2017-12-11T06:59:07.590Z,10.84
2017-12-11T06:59:48.119Z,10.78
2017-12-11T07:00:28.783Z,10.81
2017-12-11T07:01:09.354Z,10.76
2017-12-11T07:01:49.885Z,10.79
2017-12-11T07:02:30.423Z,10.81
2017-12-11T07:03:11.132Z,10.78
2017-12-11T07:03:51.667Z,10.76
2017-12-11T07:04:32.206Z,10.82
2017-12-11T07:05:12.749Z,10.82
2017-12-11T07:05:53.281Z,10.84
2017-12-11T07:06:33.835Z,10.85
2017-12-11T07:07:14.667Z,10.79
2017-12-11T07:07:55.219Z,10.84
2017-12-11T07:08:35.698Z,10.91
2017-12-11T07:09:16.257Z,10.81
2017-12-11T07:09:56.795Z,10.99
2017-12-11T07:10:37.358Z,10.81
2017-12-11T07:11:17.924Z,10.84
2017-12-11T07:11:58.529Z,10.86
2017-12-11T07:12:39.079Z,10.85
2017-12-11T07:13:19.585Z,10.96
2017-12-11T07:14:00.179Z,10.96
2017-12-11T07:14:40.749Z,10.94
2017-12-11T07:15:21.255Z,11
2017-12-11T07:16:01.837Z,11.42
2017-12-11T07:16:42.420Z,11.76
2017-12-11T07:17:22.976Z,11.78
2017-12-11T07:18:03.510Z,11.86
2017-12-11T07:18:44.093Z,11.51
2017-12-11T07:19:24.818Z,11.46
2017-12-11T07:20:05.354Z,11.7
2017-12-11T07:20:45.878Z,11.62
2017-12-11T07:21:26.414Z,11.65
2017-12-11T07:22:06.966Z,11.64
2017-12-11T07:22:47.628Z,11.72
2017-12-11T07:23:28.211Z,11.72
2017-12-11T07:24:08.855Z,11.65
2017-12-11T07:24:49.343Z,11.6
2017-12-11T07:25:29.863Z,11.6
2017-12-11T07:26:10.445Z,11.8
2017-12-11T07:26:50.975Z,11.64
2017-12-11T07:27:31.586Z,11.37
2017-12-11T07:28:12.109Z,11.35
2017-12-11T07:28:52.661Z,11.24
2017-12-11T07:29:33.191Z,11.18
2017-12-11T07:30:13.744Z,11.21
2017-12-11T07:30:54.326Z,11.37
2017-12-11T07:31:34.889Z,11.58
2017-12-11T07:32:15.475Z,11.29
2017-12-11T07:32:56.008Z,11.51
2017-12-11T07:33:36.509Z,11.64
2017-12-11T07:34:17.219Z,11.35
2017-12-11T07:34:57.752Z,11.46
2017-12-11T07:35:38.294Z,11.55
2017-12-11T07:36:18.887Z,11.62
2017-12-11T07:36:59.391Z,11.64
2017-12-11T07:37:40.066Z,11.6
2017-12-11T07:38:20.480Z,11.57
2017-12-11T07:39:01.042Z,11.72
2017-12-11T07:39:41.576Z,11.67
2017-12-11T07:40:22.181Z,11.35
2017-12-11T07:41:02.751Z,11.22
2017-12-11T07:41:43.306Z,11.33
2017-12-11T07:42:23.814Z,11.17
2017-12-11T07:43:04.356Z,11.14
2017-12-11T07:43:44.872Z,11.22
2017-12-11T07:44:25.601Z,11.17
2017-12-11T07:45:06.155Z,10.99
2017-12-11T07:45:46.652Z,10.94
2017-12-11T07:46:27.230Z,10.96
2017-12-11T07:47:07.742Z,11.03
2017-12-11T07:47:48.940Z,11.33
2017-12-11T07:48:28.880Z,11.72
2017-12-11T07:49:09.426Z,12.01
2017-12-11T07:49:49.920Z,12.01
2017-12-11T07:50:30.459Z,11.91
2017-12-11T07:51:11.023Z,11.57
2017-12-11T07:51:51.525Z,11.57
2017-12-11T07:52:32.110Z,11.62
2017-12-11T07:53:12.672Z,11.54
2017-12-11T07:53:53.256Z,11.37
2017-12-11T07:54:33.789Z,11.32
2017-12-11T07:55:14.408Z,11.35
2017-12-11T07:55:54.955Z,11.22
2017-12-11T07:56:35.438Z,11.33
2017-12-11T07:57:15.974Z,11.21
2017-12-11T07:57:56.590Z,11.21
2017-12-11T07:58:37.084Z,11.36
2017-12-11T07:59:17.622Z,11.17
2017-12-11T07:59:58.216Z,11.14
2017-12-11T08:00:38.792Z,11.07
2017-12-11T08:01:19.356Z,11.07
2017-12-11T08:01:59.832Z,11.09
2017-12-11T08:02:40.433Z,11.14
2017-12-11T08:03:20.990Z,11.21
2017-12-11T08:04:01.619Z,11.14
2017-12-11T08:04:42.102Z,11.18
2017-12-11T08:05:22.647Z,11.14
2017-12-11T08:06:03.150Z,11.21
2017-12-11T08:06:43.678Z,11.47
2017-12-11T08:07:24.227Z,11.4
2017-12-11T08:08:04.755Z,11.4
2017-12-11T08:08:45.315Z,11.28
2017-12-11T08:09:25.859Z,11.33
2017-12-11T08:10:06.434Z,11.54
2017-12-11T08:10:46.954Z,11.64
2017-12-11T08:11:27.478Z,11.67
2017-12-11T08:12:08.065Z,11.62
2017-12-11T08:12:48.601Z,11.42
2017-12-11T08:13:29.397Z,11.4
2017-12-11T08:14:09.932Z,11.6
2017-12-11T08:14:50.451Z,11.52
2017-12-11T08:15:31.021Z,11.39
2017-12-11T08:16:11.604Z,11.47
2017-12-11T08:16:52.133Z,11.32
2017-12-11T08:17:32.696Z,11.36
2017-12-11T08:18:13.244Z,11.35
2017-12-11T08:18:53.780Z,11.28
2017-12-11T08:19:34.357Z,11.22
2017-12-11T08:20:14.847Z,11.21
2017-12-11T08:20:55.380Z,11.19
2017-12-11T08:21:35.936Z,11.24
2017-12-11T08:22:16.473Z,11.28
2017-12-11T08:22:57.010Z,11.37
2017-12-11T08:23:37.569Z,11.4
2017-12-11T08:24:18.117Z,11.57
2017-12-11T08:24:58.652Z,11.58
2017-12-11T08:25:39.217Z,11.54
2017-12-11T08:26:19.791Z,11.7
2017-12-11T08:27:00.320Z,11.7
2017-12-11T08:27:40.883Z,11.73
2017-12-11T08:28:21.447Z,11.67
2017-12-11T08:29:01.990Z,11.69
2017-12-11T08:29:42.605Z,11.58
2017-12-11T08:30:23.157Z,11.52
2017-12-11T08:31:03.692Z,11.49
2017-12-11T08:31:44.245Z,11.35
2017-12-11T08:32:24.814Z,11.4
2017-12-11T08:33:05.402Z,11.35
2017-12-11T08:33:45.892Z,11.4
2017-12-11T08:34:26.478Z,11.33
2017-12-11T08:35:06.976Z,11.37
2017-12-11T08:35:47.517Z,11.32
2017-12-11T08:36:28.128Z,11.25
2017-12-11T08:37:08.667Z,11.35
2017-12-11T08:37:49.206Z,11.44
2017-12-11T08:38:29.714Z,11.6
2017-12-11T08:39:10.223Z,11.64
2017-12-11T08:39:50.759Z,11.82
2017-12-11T08:40:31.307Z,11.78
2017-12-11T08:41:11.837Z,11.82
2017-12-11T08:41:52.362Z,11.9
2017-12-11T08:42:33.021Z,11.91
2017-12-11T08:43:13.500Z,11.94
2017-12-11T08:43:54.072Z,11.76